sensor_id;sensor_type;location;lat;lon;timestamp;temperature;humidity
19188;DHT22;9726;52.198;8.792;2024-02-23T00:00:10;8.60;61.60
19188;DHT22;9726;52.198;8.792;2024-02-23T00:02:39;8.60;61.70
19188;DHT22;9726;52.198;8.792;2024-02-23T00:05:06;8.70;61.60
19188;DHT22;9726;52.198;8.792;2024-02-23T00:07:33;8.60;61.40
19188;DHT22;9726;52.198;8.792;2024-02-23T00:10:01;8.60;61.60
19188;DHT22;9726;52.198;8.792;2024-02-23T00:12:28;8.60;62.00
19188;DHT22;9726;52.198;8.792;2024-02-23T00:14:59;8.60;61.90
19188;DHT22;9726;52.198;8.792;2024-02-23T00:17:30;8.60;62.30
19188;DHT22;9726;52.198;8.792;2024-02-23T00:19:57;8.50;62.50
19188;DHT22;9726;52.198;8.792;2024-02-23T00:22:25;8.50;62.50
19188;DHT22;9726;52.198;8.792;2024-02-23T00:24:52;8.50;62.40
19188;DHT22;9726;52.198;8.792;2024-02-23T00:27:19;8.50;63.00
19188;DHT22;9726;52.198;8.792;2024-02-23T00:29:46;8.40;63.40
19188;DHT22;9726;52.198;8.792;2024-02-23T00:32:13;8.30;63.40
19188;DHT22;9726;52.198;8.792;2024-02-23T00:34:40;8.30;63.90
19188;DHT22;9726;52.198;8.792;2024-02-23T00:37:08;8.30;63.90
19188;DHT22;9726;52.198;8.792;2024-02-23T00:39:37;8.20;64.40
19188;DHT22;9726;52.198;8.792;2024-02-23T00:42:08;8.10;67.00
19188;DHT22;9726;52.198;8.792;2024-02-23T00:44:35;7.80;73.00
19188;DHT22;9726;52.198;8.792;2024-02-23T00:47:02;7.30;76.80
19188;DHT22;9726;52.198;8.792;2024-02-23T00:49:31;7.00;77.50
19188;DHT22;9726;52.198;8.792;2024-02-23T00:51:58;6.90;76.80
19188;DHT22;9726;52.198;8.792;2024-02-23T00:54:25;6.80;77.30
19188;DHT22;9726;52.198;8.792;2024-02-23T00:56:52;6.70;77.20
19188;DHT22;9726;52.198;8.792;2024-02-23T00:59:23;6.80;76.90
19188;DHT22;9726;52.198;8.792;2024-02-23T01:01:50;6.70;76.50
19188;DHT22;9726;52.198;8.792;2024-02-23T01:04:17;6.70;76.70
19188;DHT22;9726;52.198;8.792;2024-02-23T01:06:44;6.50;77.70
19188;DHT22;9726;52.198;8.792;2024-02-23T01:09:11;6.30;79.60
19188;DHT22;9726;52.198;8.792;2024-02-23T01:11:38;5.90;82.40
19188;DHT22;9726;52.198;8.792;2024-02-23T01:14:06;5.60;84.70
19188;DHT22;9726;52.198;8.792;2024-02-23T01:16:33;5.50;85.40
19188;DHT22;9726;52.198;8.792;2024-02-23T01:19:00;5.40;86.20
19188;DHT22;9726;52.198;8.792;2024-02-23T01:21:29;5.30;86.80
19188;DHT22;9726;52.198;8.792;2024-02-23T01:23:57;5.20;87.40
19188;DHT22;9726;52.198;8.792;2024-02-23T01:26:25;5.10;88.60
19188;DHT22;9726;52.198;8.792;2024-02-23T01:28:52;5.10;88.80
19188;DHT22;9726;52.198;8.792;2024-02-23T01:31:19;5.00;88.20
19188;DHT22;9726;52.198;8.792;2024-02-23T01:33:46;5.00;87.80
19188;DHT22;9726;52.198;8.792;2024-02-23T01:36:14;5.00;87.90
19188;DHT22;9726;52.198;8.792;2024-02-23T01:38:41;5.00;87.70
19188;DHT22;9726;52.198;8.792;2024-02-23T01:41:09;5.00;86.90
19188;DHT22;9726;52.198;8.792;2024-02-23T01:43:38;5.00;86.90
19188;DHT22;9726;52.198;8.792;2024-02-23T01:46:06;4.90;88.10
19188;DHT22;9726;52.198;8.792;2024-02-23T01:48:33;4.90;88.70
19188;DHT22;9726;52.198;8.792;2024-02-23T01:51:01;4.90;89.20
19188;DHT22;9726;52.198;8.792;2024-02-23T01:53:29;4.90;90.00
19188;DHT22;9726;52.198;8.792;2024-02-23T01:55:57;4.90;89.90
19188;DHT22;9726;52.198;8.792;2024-02-23T01:58:27;4.90;90.70
19188;DHT22;9726;52.198;8.792;2024-02-23T02:00:55;4.80;90.50
19188;DHT22;9726;52.198;8.792;2024-02-23T02:03:22;4.90;89.10
19188;DHT22;9726;52.198;8.792;2024-02-23T02:05:50;4.90;89.10
19188;DHT22;9726;52.198;8.792;2024-02-23T02:08:18;4.90;87.70
19188;DHT22;9726;52.198;8.792;2024-02-23T02:10:48;4.90;86.60
19188;DHT22;9726;52.198;8.792;2024-02-23T02:13:16;4.90;84.90
19188;DHT22;9726;52.198;8.792;2024-02-23T02:15:43;4.90;85.20
19188;DHT22;9726;52.198;8.792;2024-02-23T02:18:10;4.90;84.60
19188;DHT22;9726;52.198;8.792;2024-02-23T02:20:40;4.90;84.30
19188;DHT22;9726;52.198;8.792;2024-02-23T02:23:15;4.90;83.50
19188;DHT22;9726;52.198;8.792;2024-02-23T02:25:42;4.90;83.80
19188;DHT22;9726;52.198;8.792;2024-02-23T02:28:09;4.90;83.70
19188;DHT22;9726;52.198;8.792;2024-02-23T02:30:37;4.90;83.20
19188;DHT22;9726;52.198;8.792;2024-02-23T02:33:04;5.00;82.60
19188;DHT22;9726;52.198;8.792;2024-02-23T02:35:32;5.00;83.60
19188;DHT22;9726;52.198;8.792;2024-02-23T02:37:59;5.00;84.00
19188;DHT22;9726;52.198;8.792;2024-02-23T02:40:26;5.00;83.80
19188;DHT22;9726;52.198;8.792;2024-02-23T02:42:58;5.00;83.10
19188;DHT22;9726;52.198;8.792;2024-02-23T02:45:25;5.00;83.20
19188;DHT22;9726;52.198;8.792;2024-02-23T02:47:52;5.10;81.80
19188;DHT22;9726;52.198;8.792;2024-02-23T02:50:20;5.10;81.60
19188;DHT22;9726;52.198;8.792;2024-02-23T02:52:48;5.10;81.50
19188;DHT22;9726;52.198;8.792;2024-02-23T02:55:15;5.20;80.70
19188;DHT22;9726;52.198;8.792;2024-02-23T02:57:44;5.20;80.90
19188;DHT22;9726;52.198;8.792;2024-02-23T03:00:12;5.20;81.00
19188;DHT22;9726;52.198;8.792;2024-02-23T03:02:39;5.20;80.60
19188;DHT22;9726;52.198;8.792;2024-02-23T03:05:06;5.10;80.40
19188;DHT22;9726;52.198;8.792;2024-02-23T03:07:34;5.20;79.90
19188;DHT22;9726;52.198;8.792;2024-02-23T03:10:01;5.20;79.70
19188;DHT22;9726;52.198;8.792;2024-02-23T03:12:28;5.20;79.40
19188;DHT22;9726;52.198;8.792;2024-02-23T03:14:55;5.20;79.30
19188;DHT22;9726;52.198;8.792;2024-02-23T03:17:25;5.20;79.50
19188;DHT22;9726;52.198;8.792;2024-02-23T03:19:57;5.10;79.60
19188;DHT22;9726;52.198;8.792;2024-02-23T03:22:25;5.10;79.30
19188;DHT22;9726;52.198;8.792;2024-02-23T03:24:52;5.20;79.30
19188;DHT22;9726;52.198;8.792;2024-02-23T03:27:19;5.20;78.90
19188;DHT22;9726;52.198;8.792;2024-02-23T03:29:46;5.20;78.80
19188;DHT22;9726;52.198;8.792;2024-02-23T03:32:14;5.30;78.70
19188;DHT22;9726;52.198;8.792;2024-02-23T03:34:41;5.30;78.80
19188;DHT22;9726;52.198;8.792;2024-02-23T03:37:08;5.30;78.10
19188;DHT22;9726;52.198;8.792;2024-02-23T03:39:35;5.40;77.50
19188;DHT22;9726;52.198;8.792;2024-02-23T03:42:08;5.40;77.80
19188;DHT22;9726;52.198;8.792;2024-02-23T03:44:35;5.40;77.00
19188;DHT22;9726;52.198;8.792;2024-02-23T03:47:03;5.40;76.80
19188;DHT22;9726;52.198;8.792;2024-02-23T03:49:30;5.50;76.30
19188;DHT22;9726;52.198;8.792;2024-02-23T03:51:57;5.50;75.80
19188;DHT22;9726;52.198;8.792;2024-02-23T03:54:25;5.50;75.90
19188;DHT22;9726;52.198;8.792;2024-02-23T03:56:52;5.50;75.70
19188;DHT22;9726;52.198;8.792;2024-02-23T03:59:19;5.60;75.20
19188;DHT22;9726;52.198;8.792;2024-02-23T04:01:53;5.60;75.50
19188;DHT22;9726;52.198;8.792;2024-02-23T04:04:22;5.60;74.80
19188;DHT22;9726;52.198;8.792;2024-02-23T04:06:49;5.60;74.20
19188;DHT22;9726;52.198;8.792;2024-02-23T04:09:16;5.70;73.60
19188;DHT22;9726;52.198;8.792;2024-02-23T04:11:43;5.70;74.10
19188;DHT22;9726;52.198;8.792;2024-02-23T04:14:11;5.60;73.60
19188;DHT22;9726;52.198;8.792;2024-02-23T04:16:38;5.60;73.80
19188;DHT22;9726;52.198;8.792;2024-02-23T04:19:05;5.60;73.70
19188;DHT22;9726;52.198;8.792;2024-02-23T04:21:33;5.50;73.70
19188;DHT22;9726;52.198;8.792;2024-02-23T04:24:00;5.50;73.30
19188;DHT22;9726;52.198;8.792;2024-02-23T04:26:27;5.50;73.10
19188;DHT22;9726;52.198;8.792;2024-02-23T04:28:54;5.50;73.10
19188;DHT22;9726;52.198;8.792;2024-02-23T04:31:21;5.50;72.10
19188;DHT22;9726;52.198;8.792;2024-02-23T04:33:48;5.50;72.00
19188;DHT22;9726;52.198;8.792;2024-02-23T04:36:19;5.50;72.10
19188;DHT22;9726;52.198;8.792;2024-02-23T04:38:54;5.50;71.50
19188;DHT22;9726;52.198;8.792;2024-02-23T04:41:21;5.50;70.80
19188;DHT22;9726;52.198;8.792;2024-02-23T04:43:51;5.50;70.50
19188;DHT22;9726;52.198;8.792;2024-02-23T04:46:21;5.40;71.00
19188;DHT22;9726;52.198;8.792;2024-02-23T04:48:49;5.30;71.40
19188;DHT22;9726;52.198;8.792;2024-02-23T04:51:16;5.30;71.20
19188;DHT22;9726;52.198;8.792;2024-02-23T04:53:43;5.40;71.10
19188;DHT22;9726;52.198;8.792;2024-02-23T04:56:10;5.30;70.90
19188;DHT22;9726;52.198;8.792;2024-02-23T04:58:37;5.30;71.10
19188;DHT22;9726;52.198;8.792;2024-02-23T05:01:04;5.30;71.10
19188;DHT22;9726;52.198;8.792;2024-02-23T05:03:34;5.30;71.00
19188;DHT22;9726;52.198;8.792;2024-02-23T05:06:02;5.30;71.20
19188;DHT22;9726;52.198;8.792;2024-02-23T05:08:30;5.20;71.30
19188;DHT22;9726;52.198;8.792;2024-02-23T05:10:57;5.20;71.50
19188;DHT22;9726;52.198;8.792;2024-02-23T05:13:25;5.20;71.60
19188;DHT22;9726;52.198;8.792;2024-02-23T05:15:55;5.20;71.60
19188;DHT22;9726;52.198;8.792;2024-02-23T05:18:22;5.20;71.80
19188;DHT22;9726;52.198;8.792;2024-02-23T05:20:50;5.20;71.60
19188;DHT22;9726;52.198;8.792;2024-02-23T05:23:23;5.20;71.90
19188;DHT22;9726;52.198;8.792;2024-02-23T05:25:52;5.30;72.20
19188;DHT22;9726;52.198;8.792;2024-02-23T05:28:22;5.30;72.30
19188;DHT22;9726;52.198;8.792;2024-02-23T05:30:49;5.40;72.10
19188;DHT22;9726;52.198;8.792;2024-02-23T05:33:16;5.40;72.00
19188;DHT22;9726;52.198;8.792;2024-02-23T05:35:44;5.50;72.20
19188;DHT22;9726;52.198;8.792;2024-02-23T05:38:12;5.50;72.10
19188;DHT22;9726;52.198;8.792;2024-02-23T05:40:40;5.40;72.20
19188;DHT22;9726;52.198;8.792;2024-02-23T05:43:08;5.30;72.80
19188;DHT22;9726;52.198;8.792;2024-02-23T05:45:35;5.20;73.00
19188;DHT22;9726;52.198;8.792;2024-02-23T05:48:03;5.30;72.80
19188;DHT22;9726;52.198;8.792;2024-02-23T05:50:30;5.30;73.10
19188;DHT22;9726;52.198;8.792;2024-02-23T05:52:58;5.20;73.10
19188;DHT22;9726;52.198;8.792;2024-02-23T05:55:26;5.20;73.20
19188;DHT22;9726;52.198;8.792;2024-02-23T05:57:53;5.20;73.40
19188;DHT22;9726;52.198;8.792;2024-02-23T06:00:20;5.20;73.20
19188;DHT22;9726;52.198;8.792;2024-02-23T06:02:48;5.20;73.20
19188;DHT22;9726;52.198;8.792;2024-02-23T06:05:15;5.30;73.30
19188;DHT22;9726;52.198;8.792;2024-02-23T06:07:43;5.20;73.20
19188;DHT22;9726;52.198;8.792;2024-02-23T06:10:10;5.30;73.20
19188;DHT22;9726;52.198;8.792;2024-02-23T06:12:37;5.40;73.00
19188;DHT22;9726;52.198;8.792;2024-02-23T06:15:05;5.40;72.50
19188;DHT22;9726;52.198;8.792;2024-02-23T06:17:33;5.50;72.50
19188;DHT22;9726;52.198;8.792;2024-02-23T06:20:00;5.50;72.20
19188;DHT22;9726;52.198;8.792;2024-02-23T06:22:30;5.50;72.40
19188;DHT22;9726;52.198;8.792;2024-02-23T06:24:57;5.40;72.60
19188;DHT22;9726;52.198;8.792;2024-02-23T06:27:24;5.40;72.40
19188;DHT22;9726;52.198;8.792;2024-02-23T06:29:52;5.50;72.30
19188;DHT22;9726;52.198;8.792;2024-02-23T06:32:19;5.50;72.20
19188;DHT22;9726;52.198;8.792;2024-02-23T06:34:46;5.40;72.30
19188;DHT22;9726;52.198;8.792;2024-02-23T06:37:13;5.50;71.90
19188;DHT22;9726;52.198;8.792;2024-02-23T06:39:40;5.50;71.80
19188;DHT22;9726;52.198;8.792;2024-02-23T06:42:07;5.50;71.90
19188;DHT22;9726;52.198;8.792;2024-02-23T06:44:35;5.50;71.90
19188;DHT22;9726;52.198;8.792;2024-02-23T06:47:02;5.50;71.90
19188;DHT22;9726;52.198;8.792;2024-02-23T06:49:30;5.50;71.40
19188;DHT22;9726;52.198;8.792;2024-02-23T06:51:57;5.60;70.80
19188;DHT22;9726;52.198;8.792;2024-02-23T06:54:24;5.60;71.20
19188;DHT22;9726;52.198;8.792;2024-02-23T06:56:51;5.60;71.10
19188;DHT22;9726;52.198;8.792;2024-02-23T06:59:18;5.60;70.80
19188;DHT22;9726;52.198;8.792;2024-02-23T07:01:55;5.70;70.50
19188;DHT22;9726;52.198;8.792;2024-02-23T07:04:22;5.70;69.90
19188;DHT22;9726;52.198;8.792;2024-02-23T07:06:49;5.80;69.90
19188;DHT22;9726;52.198;8.792;2024-02-23T07:09:16;5.80;70.20
19188;DHT22;9726;52.198;8.792;2024-02-23T07:11:43;5.90;69.40
19188;DHT22;9726;52.198;8.792;2024-02-23T07:14:12;5.90;69.40
19188;DHT22;9726;52.198;8.792;2024-02-23T07:16:41;6.00;69.40
19188;DHT22;9726;52.198;8.792;2024-02-23T07:19:08;6.00;69.20
19188;DHT22;9726;52.198;8.792;2024-02-23T07:21:36;6.00;69.40
19188;DHT22;9726;52.198;8.792;2024-02-23T07:24:07;6.10;69.20
19188;DHT22;9726;52.198;8.792;2024-02-23T07:26:34;6.10;68.90
19188;DHT22;9726;52.198;8.792;2024-02-23T07:29:01;6.20;68.40
19188;DHT22;9726;52.198;8.792;2024-02-23T07:31:29;6.10;68.60
19188;DHT22;9726;52.198;8.792;2024-02-23T07:33:56;6.20;68.50
19188;DHT22;9726;52.198;8.792;2024-02-23T07:36:23;6.20;68.60
19188;DHT22;9726;52.198;8.792;2024-02-23T07:38:50;6.30;68.00
19188;DHT22;9726;52.198;8.792;2024-02-23T07:41:17;6.30;68.20
19188;DHT22;9726;52.198;8.792;2024-02-23T07:43:45;6.20;68.00
19188;DHT22;9726;52.198;8.792;2024-02-23T07:46:12;6.20;67.80
19188;DHT22;9726;52.198;8.792;2024-02-23T07:48:39;6.20;68.10
19188;DHT22;9726;52.198;8.792;2024-02-23T07:51:07;6.20;67.80
19188;DHT22;9726;52.198;8.792;2024-02-23T07:53:34;6.30;68.10
19188;DHT22;9726;52.198;8.792;2024-02-23T07:56:02;6.30;67.20
19188;DHT22;9726;52.198;8.792;2024-02-23T07:58:30;6.20;67.40
19188;DHT22;9726;52.198;8.792;2024-02-23T08:00:57;6.20;67.90
19188;DHT22;9726;52.198;8.792;2024-02-23T08:03:24;6.20;68.00
19188;DHT22;9726;52.198;8.792;2024-02-23T08:05:51;6.20;67.60
19188;DHT22;9726;52.198;8.792;2024-02-23T08:08:18;6.20;67.70
19188;DHT22;9726;52.198;8.792;2024-02-23T08:10:45;6.20;67.60
19188;DHT22;9726;52.198;8.792;2024-02-23T08:13:12;6.20;67.40
19188;DHT22;9726;52.198;8.792;2024-02-23T08:15:39;6.30;67.00
19188;DHT22;9726;52.198;8.792;2024-02-23T08:18:06;6.40;66.70
19188;DHT22;9726;52.198;8.792;2024-02-23T08:20:33;6.50;66.80
19188;DHT22;9726;52.198;8.792;2024-02-23T08:23:01;6.50;66.40
19188;DHT22;9726;52.198;8.792;2024-02-23T08:25:29;6.60;66.00
19188;DHT22;9726;52.198;8.792;2024-02-23T08:27:56;6.60;65.70
19188;DHT22;9726;52.198;8.792;2024-02-23T08:30:23;6.70;66.10
19188;DHT22;9726;52.198;8.792;2024-02-23T08:32:50;6.70;65.80
19188;DHT22;9726;52.198;8.792;2024-02-23T08:35:17;6.80;65.10
19188;DHT22;9726;52.198;8.792;2024-02-23T08:37:45;6.80;65.00
19188;DHT22;9726;52.198;8.792;2024-02-23T08:40:12;7.00;65.00
19188;DHT22;9726;52.198;8.792;2024-02-23T08:42:40;6.90;64.40
19188;DHT22;9726;52.198;8.792;2024-02-23T08:45:07;7.10;64.30
19188;DHT22;9726;52.198;8.792;2024-02-23T08:47:36;7.10;63.70
19188;DHT22;9726;52.198;8.792;2024-02-23T08:50:04;7.20;63.50
19188;DHT22;9726;52.198;8.792;2024-02-23T08:52:31;7.30;62.80
19188;DHT22;9726;52.198;8.792;2024-02-23T08:54:58;7.30;62.50
19188;DHT22;9726;52.198;8.792;2024-02-23T08:57:27;7.40;62.00
19188;DHT22;9726;52.198;8.792;2024-02-23T08:59:55;7.40;61.70
19188;DHT22;9726;52.198;8.792;2024-02-23T09:02:24;7.50;62.30
19188;DHT22;9726;52.198;8.792;2024-02-23T09:04:53;7.50;61.80
19188;DHT22;9726;52.198;8.792;2024-02-23T09:07:20;7.60;61.60
19188;DHT22;9726;52.198;8.792;2024-02-23T09:09:48;7.50;61.00
19188;DHT22;9726;52.198;8.792;2024-02-23T09:12:16;7.60;61.60
19188;DHT22;9726;52.198;8.792;2024-02-23T09:14:44;7.70;61.80
19188;DHT22;9726;52.198;8.792;2024-02-23T09:17:13;7.80;61.50
19188;DHT22;9726;52.198;8.792;2024-02-23T09:19:40;7.90;61.10
19188;DHT22;9726;52.198;8.792;2024-02-23T09:22:08;8.00;61.10
19188;DHT22;9726;52.198;8.792;2024-02-23T09:24:38;8.00;60.50
19188;DHT22;9726;52.198;8.792;2024-02-23T09:27:05;8.00;59.90
19188;DHT22;9726;52.198;8.792;2024-02-23T09:29:34;7.90;61.10
19188;DHT22;9726;52.198;8.792;2024-02-23T09:32:01;7.90;61.10
19188;DHT22;9726;52.198;8.792;2024-02-23T09:34:28;7.70;60.80
19188;DHT22;9726;52.198;8.792;2024-02-23T09:36:56;7.70;61.20
19188;DHT22;9726;52.198;8.792;2024-02-23T09:39:23;7.80;61.50
19188;DHT22;9726;52.198;8.792;2024-02-23T09:41:54;7.80;61.40
19188;DHT22;9726;52.198;8.792;2024-02-23T09:44:22;7.90;61.20
19188;DHT22;9726;52.198;8.792;2024-02-23T09:46:50;7.80;60.80
19188;DHT22;9726;52.198;8.792;2024-02-23T09:49:17;7.90;61.60
19188;DHT22;9726;52.198;8.792;2024-02-23T09:51:44;7.80;60.50
19188;DHT22;9726;52.198;8.792;2024-02-23T09:54:11;7.80;61.20
19188;DHT22;9726;52.198;8.792;2024-02-23T09:56:39;7.80;60.60
19188;DHT22;9726;52.198;8.792;2024-02-23T09:59:07;7.80;61.00
19188;DHT22;9726;52.198;8.792;2024-02-23T10:01:34;7.80;61.00
19188;DHT22;9726;52.198;8.792;2024-02-23T10:04:03;7.80;60.90
19188;DHT22;9726;52.198;8.792;2024-02-23T10:06:33;7.80;60.60
19188;DHT22;9726;52.198;8.792;2024-02-23T10:09:00;7.80;60.50
19188;DHT22;9726;52.198;8.792;2024-02-23T10:11:28;7.90;60.60
19188;DHT22;9726;52.198;8.792;2024-02-23T10:13:55;7.80;59.80
19188;DHT22;9726;52.198;8.792;2024-02-23T10:16:23;7.80;59.80
19188;DHT22;9726;52.198;8.792;2024-02-23T10:18:50;7.90;59.80
19188;DHT22;9726;52.198;8.792;2024-02-23T10:21:18;7.90;59.60
19188;DHT22;9726;52.198;8.792;2024-02-23T10:23:45;8.00;59.30
19188;DHT22;9726;52.198;8.792;2024-02-23T10:26:13;8.10;58.60
19188;DHT22;9726;52.198;8.792;2024-02-23T10:28:40;8.20;58.50
19188;DHT22;9726;52.198;8.792;2024-02-23T10:31:09;8.20;58.20
19188;DHT22;9726;52.198;8.792;2024-02-23T10:33:41;8.20;58.10
19188;DHT22;9726;52.198;8.792;2024-02-23T10:36:15;8.20;57.70
19188;DHT22;9726;52.198;8.792;2024-02-23T10:38:45;8.20;57.10
19188;DHT22;9726;52.198;8.792;2024-02-23T10:41:14;8.30;57.70
19188;DHT22;9726;52.198;8.792;2024-02-23T10:43:48;8.40;57.80
19188;DHT22;9726;52.198;8.792;2024-02-23T10:46:15;8.40;57.50
19188;DHT22;9726;52.198;8.792;2024-02-23T10:48:44;8.40;57.10
19188;DHT22;9726;52.198;8.792;2024-02-23T10:51:15;8.40;57.50
19188;DHT22;9726;52.198;8.792;2024-02-23T10:53:48;8.40;57.30
19188;DHT22;9726;52.198;8.792;2024-02-23T10:56:16;8.50;57.50
19188;DHT22;9726;52.198;8.792;2024-02-23T10:58:43;8.40;57.00
19188;DHT22;9726;52.198;8.792;2024-02-23T11:01:11;8.40;56.30
19188;DHT22;9726;52.198;8.792;2024-02-23T11:03:42;8.40;56.90
19188;DHT22;9726;52.198;8.792;2024-02-23T11:06:11;8.40;56.90
19188;DHT22;9726;52.198;8.792;2024-02-23T11:08:39;8.50;56.90
19188;DHT22;9726;52.198;8.792;2024-02-23T11:11:10;8.60;56.70
19188;DHT22;9726;52.198;8.792;2024-02-23T11:13:38;8.70;57.00
19188;DHT22;9726;52.198;8.792;2024-02-23T11:16:07;8.70;55.50
19188;DHT22;9726;52.198;8.792;2024-02-23T11:18:37;8.70;55.80
19188;DHT22;9726;52.198;8.792;2024-02-23T11:21:09;8.80;56.30
19188;DHT22;9726;52.198;8.792;2024-02-23T11:23:48;8.90;55.40
19188;DHT22;9726;52.198;8.792;2024-02-23T11:26:15;8.90;55.30
19188;DHT22;9726;52.198;8.792;2024-02-23T11:28:50;9.10;55.30
19188;DHT22;9726;52.198;8.792;2024-02-23T11:31:24;9.20;55.10
19188;DHT22;9726;52.198;8.792;2024-02-23T11:33:54;9.40;54.00
19188;DHT22;9726;52.198;8.792;2024-02-23T11:36:35;9.50;54.10
19188;DHT22;9726;52.198;8.792;2024-02-23T11:39:03;9.80;53.60
19188;DHT22;9726;52.198;8.792;2024-02-23T11:41:30;9.90;52.90
19188;DHT22;9726;52.198;8.792;2024-02-23T11:43:58;10.00;52.80
19188;DHT22;9726;52.198;8.792;2024-02-23T11:46:25;10.00;52.60
19188;DHT22;9726;52.198;8.792;2024-02-23T11:48:52;10.20;52.90
19188;DHT22;9726;52.198;8.792;2024-02-23T11:51:23;10.20;52.70
19188;DHT22;9726;52.198;8.792;2024-02-23T11:53:55;10.10;52.00
19188;DHT22;9726;52.198;8.792;2024-02-23T11:56:25;9.80;52.70
19188;DHT22;9726;52.198;8.792;2024-02-23T11:58:54;9.70;53.10
19188;DHT22;9726;52.198;8.792;2024-02-23T12:01:22;9.60;52.80
19188;DHT22;9726;52.198;8.792;2024-02-23T12:03:50;9.40;53.40
19188;DHT22;9726;52.198;8.792;2024-02-23T12:06:18;9.40;53.80
19188;DHT22;9726;52.198;8.792;2024-02-23T12:08:45;9.50;53.90
19188;DHT22;9726;52.198;8.792;2024-02-23T12:11:14;9.40;53.70
19188;DHT22;9726;52.198;8.792;2024-02-23T12:13:41;9.40;53.80
19188;DHT22;9726;52.198;8.792;2024-02-23T12:16:09;9.30;54.40
19188;DHT22;9726;52.198;8.792;2024-02-23T12:18:36;9.40;54.70
19188;DHT22;9726;52.198;8.792;2024-02-23T12:21:05;9.30;54.20
19188;DHT22;9726;52.198;8.792;2024-02-23T12:23:40;9.40;54.60
19188;DHT22;9726;52.198;8.792;2024-02-23T12:26:09;9.50;55.10
19188;DHT22;9726;52.198;8.792;2024-02-23T12:28:37;9.50;54.70
19188;DHT22;9726;52.198;8.792;2024-02-23T12:31:12;9.40;55.20
19188;DHT22;9726;52.198;8.792;2024-02-23T12:33:40;9.50;55.40
19188;DHT22;9726;52.198;8.792;2024-02-23T12:36:08;9.60;54.50
19188;DHT22;9726;52.198;8.792;2024-02-23T12:38:37;9.60;54.40
19188;DHT22;9726;52.198;8.792;2024-02-23T12:41:04;9.70;53.70
19188;DHT22;9726;52.198;8.792;2024-02-23T12:43:32;9.90;53.40
19188;DHT22;9726;52.198;8.792;2024-02-23T12:46:00;9.90;52.90
19188;DHT22;9726;52.198;8.792;2024-02-23T12:48:31;9.90;52.60
19188;DHT22;9726;52.198;8.792;2024-02-23T12:50:58;10.00;52.80
19188;DHT22;9726;52.198;8.792;2024-02-23T12:53:36;10.00;52.40
19188;DHT22;9726;52.198;8.792;2024-02-23T12:56:06;10.10;50.90
19188;DHT22;9726;52.198;8.792;2024-02-23T12:58:41;10.00;51.90
19188;DHT22;9726;52.198;8.792;2024-02-23T13:01:10;10.10;52.30
19188;DHT22;9726;52.198;8.792;2024-02-23T13:03:38;10.00;52.00
19188;DHT22;9726;52.198;8.792;2024-02-23T13:06:10;10.10;51.90
19188;DHT22;9726;52.198;8.792;2024-02-23T13:08:41;10.10;52.00
19188;DHT22;9726;52.198;8.792;2024-02-23T13:11:09;10.10;52.30
19188;DHT22;9726;52.198;8.792;2024-02-23T13:13:38;10.20;52.00
19188;DHT22;9726;52.198;8.792;2024-02-23T13:16:10;10.10;52.30
19188;DHT22;9726;52.198;8.792;2024-02-23T13:18:37;10.10;53.00
19188;DHT22;9726;52.198;8.792;2024-02-23T13:21:04;10.00;52.60
19188;DHT22;9726;52.198;8.792;2024-02-23T13:23:31;10.10;52.90
19188;DHT22;9726;52.198;8.792;2024-02-23T13:25:58;10.10;53.30
19188;DHT22;9726;52.198;8.792;2024-02-23T13:28:30;10.20;53.00
19188;DHT22;9726;52.198;8.792;2024-02-23T13:30:57;10.40;51.70
19188;DHT22;9726;52.198;8.792;2024-02-23T13:33:25;10.40;51.40
19188;DHT22;9726;52.198;8.792;2024-02-23T13:35:53;10.50;52.20
19188;DHT22;9726;52.198;8.792;2024-02-23T13:38:22;10.30;51.60
19188;DHT22;9726;52.198;8.792;2024-02-23T13:40:49;10.20;52.20
19188;DHT22;9726;52.198;8.792;2024-02-23T13:43:17;10.30;52.90
19188;DHT22;9726;52.198;8.792;2024-02-23T13:45:51;10.30;52.70
19188;DHT22;9726;52.198;8.792;2024-02-23T13:48:19;10.20;52.30
19188;DHT22;9726;52.198;8.792;2024-02-23T13:50:48;10.10;52.80
19188;DHT22;9726;52.198;8.792;2024-02-23T13:53:16;10.40;52.50
19188;DHT22;9726;52.198;8.792;2024-02-23T13:55:43;10.50;52.60
19188;DHT22;9726;52.198;8.792;2024-02-23T13:58:11;10.40;52.10
19188;DHT22;9726;52.198;8.792;2024-02-23T14:00:39;10.40;52.60
19188;DHT22;9726;52.198;8.792;2024-02-23T14:03:06;10.40;52.80
19188;DHT22;9726;52.198;8.792;2024-02-23T14:05:33;10.30;52.90
19188;DHT22;9726;52.198;8.792;2024-02-23T14:08:01;10.30;52.70
19188;DHT22;9726;52.198;8.792;2024-02-23T14:10:31;10.20;53.10
19188;DHT22;9726;52.198;8.792;2024-02-23T14:12:58;10.10;53.30
19188;DHT22;9726;52.198;8.792;2024-02-23T14:15:25;10.00;53.60
19188;DHT22;9726;52.198;8.792;2024-02-23T14:17:57;10.00;53.80
19188;DHT22;9726;52.198;8.792;2024-02-23T14:20:25;9.90;54.30
19188;DHT22;9726;52.198;8.792;2024-02-23T14:22:54;9.80;53.80
19188;DHT22;9726;52.198;8.792;2024-02-23T14:25:23;9.70;54.40
19188;DHT22;9726;52.198;8.792;2024-02-23T14:27:50;9.60;55.10
19188;DHT22;9726;52.198;8.792;2024-02-23T14:30:17;9.40;56.10
19188;DHT22;9726;52.198;8.792;2024-02-23T14:32:44;9.40;58.40
19188;DHT22;9726;52.198;8.792;2024-02-23T14:35:12;9.40;61.60
19188;DHT22;9726;52.198;8.792;2024-02-23T14:37:39;9.20;64.90
19188;DHT22;9726;52.198;8.792;2024-02-23T14:40:06;9.10;63.30
19188;DHT22;9726;52.198;8.792;2024-02-23T14:42:34;9.00;64.10
19188;DHT22;9726;52.198;8.792;2024-02-23T14:45:01;8.90;63.40
19188;DHT22;9726;52.198;8.792;2024-02-23T14:47:28;8.60;65.90
19188;DHT22;9726;52.198;8.792;2024-02-23T14:50:11;8.30;68.40
19188;DHT22;9726;52.198;8.792;2024-02-23T14:52:39;8.10;68.60
19188;DHT22;9726;52.198;8.792;2024-02-23T14:55:19;8.10;68.00
19188;DHT22;9726;52.198;8.792;2024-02-23T14:57:46;8.10;67.00
19188;DHT22;9726;52.198;8.792;2024-02-23T15:00:13;8.10;67.10
19188;DHT22;9726;52.198;8.792;2024-02-23T15:02:44;8.20;67.40
19188;DHT22;9726;52.198;8.792;2024-02-23T15:05:12;8.30;66.40
19188;DHT22;9726;52.198;8.792;2024-02-23T15:07:39;8.30;66.20
19188;DHT22;9726;52.198;8.792;2024-02-23T15:10:07;8.50;66.70
19188;DHT22;9726;52.198;8.792;2024-02-23T15:12:36;8.50;65.60
19188;DHT22;9726;52.198;8.792;2024-02-23T15:15:04;8.60;64.60
19188;DHT22;9726;52.198;8.792;2024-02-23T15:17:32;8.60;64.80
19188;DHT22;9726;52.198;8.792;2024-02-23T15:20:01;8.60;63.40
19188;DHT22;9726;52.198;8.792;2024-02-23T15:22:29;8.70;63.00
19188;DHT22;9726;52.198;8.792;2024-02-23T15:24:56;8.60;62.40
19188;DHT22;9726;52.198;8.792;2024-02-23T15:27:28;8.60;63.90
19188;DHT22;9726;52.198;8.792;2024-02-23T15:29:55;8.50;65.50
19188;DHT22;9726;52.198;8.792;2024-02-23T15:32:22;8.40;66.30
19188;DHT22;9726;52.198;8.792;2024-02-23T15:34:49;8.30;66.70
19188;DHT22;9726;52.198;8.792;2024-02-23T15:37:16;8.20;65.80
19188;DHT22;9726;52.198;8.792;2024-02-23T15:39:44;8.20;64.80
19188;DHT22;9726;52.198;8.792;2024-02-23T15:42:12;8.20;64.40
19188;DHT22;9726;52.198;8.792;2024-02-23T15:44:40;8.20;64.10
19188;DHT22;9726;52.198;8.792;2024-02-23T15:47:07;8.20;63.80
19188;DHT22;9726;52.198;8.792;2024-02-23T15:49:35;8.30;63.00
19188;DHT22;9726;52.198;8.792;2024-02-23T15:52:26;8.30;64.20
19188;DHT22;9726;52.198;8.792;2024-02-23T15:54:53;8.40;63.70
19188;DHT22;9726;52.198;8.792;2024-02-23T15:57:20;8.40;62.50
19188;DHT22;9726;52.198;8.792;2024-02-23T15:59:48;8.40;62.40
19188;DHT22;9726;52.198;8.792;2024-02-23T16:02:31;8.40;62.80
19188;DHT22;9726;52.198;8.792;2024-02-23T16:04:58;8.30;62.80